Time;durP1;ratioP1;P1;durP2;ratioP2;P2;SDS_P1;SDS_P2;PMS_P1;PMS_P2;Temp;Humidity;BMP_temperature;BMP_pressure;BME280_temperature;BME280_humidity;BME280_pressure;Samples;Min_cycle;Max_cycle;Signal;HPM_P1;HPM_P2
2023/12/09 00:01:51;;;;;;;62.00;39.10;;;;;;;2.65;100.00;100157.41;181471;1253;58561;-80
2023/12/09 00:05:54;;;;;;;95.10;55.90;;;;;;;2.65;100.00;100155.14;178847;1253;44684;-85
2023/12/09 00:09:57;;;;;;;45.50;29.50;;;;;;;2.67;100.00;100147.02;178663;1252;46197;-84
2023/12/09 00:14:03;;;;;;;40.80;30.00;;;;;;;2.71;100.00;100143.13;178676;1253;46001;-83
2023/12/09 00:18:07;;;;;;;44.60;30.30;;;;;;;2.73;100.00;100146.55;179225;1252;45995;-84
2023/12/09 00:22:11;;;;;;;30.60;22.20;;;;;;;2.71;100.00;100147.67;178582;1254;57920;-83
2023/12/09 00:26:15;;;;;;;39.60;26.30;;;;;;;2.63;100.00;100140.76;178612;1255;45929;-83
2023/12/09 00:30:18;;;;;;;36.30;22.60;;;;;;;2.52;100.00;100140.94;178654;1253;45995;-83
2023/12/09 00:34:21;;;;;;;40.50;23.30;;;;;;;2.48;100.00;100143.92;178534;1254;46082;-83
2023/12/09 00:38:24;;;;;;;18.60;13.30;;;;;;;2.46;100.00;100150.69;178207;1253;45984;-84
2023/12/09 00:42:27;;;;;;;17.70;13.10;;;;;;;2.46;100.00;100154.70;179193;1255;57929;-84
2023/12/09 00:46:31;;;;;;;21.20;14.90;;;;;;;2.45;100.00;100151.27;178626;1252;46414;-83
2023/12/09 00:50:34;;;;;;;21.60;13.70;;;;;;;2.46;100.00;100157.89;178921;1252;46082;-84
2023/12/09 00:54:37;;;;;;;18.30;12.90;;;;;;;2.46;100.00;100155.25;178900;1253;44208;-84
2023/12/09 00:58:40;;;;;;;20.50;13.60;;;;;;;2.45;100.00;100159.66;178549;1254;46659;-84
2023/12/09 01:02:43;;;;;;;19.60;13.30;;;;;;;2.45;100.00;100162.13;178483;1253;56896;-85
2023/12/09 01:06:47;;;;;;;18.40;13.00;;;;;;;2.48;100.00;100165.30;178067;1253;46212;-85
2023/12/09 01:10:50;;;;;;;17.50;13.00;;;;;;;2.49;100.00;100163.13;178299;1252;46133;-83
2023/12/09 01:14:53;;;;;;;18.60;14.30;;;;;;;2.50;100.00;100163.95;177915;1252;44850;-85
2023/12/09 01:18:56;;;;;;;21.90;13.20;;;;;;;2.48;100.00;100166.90;178773;1254;46051;-83
2023/12/09 01:23:00;;;;;;;21.50;17.30;;;;;;;2.42;100.00;100169.45;178684;1255;58187;-85
2023/12/09 01:27:03;;;;;;;23.00;11.30;;;;;;;2.36;100.00;100171.29;178641;1253;46086;-84
2023/12/09 01:31:06;;;;;;;19.90;13.10;;;;;;;2.32;100.00;100166.25;178377;1252;44155;-84
2023/12/09 01:35:10;;;;;;;23.10;13.30;;;;;;;2.26;100.00;100165.14;178480;1252;46089;-84
2023/12/09 01:39:13;;;;;;;23.90;15.00;;;;;;;2.25;100.00;100167.64;178326;1252;48312;-84
2023/12/09 01:43:16;;;;;;;22.60;15.50;;;;;;;2.26;100.00;100165.84;179291;1252;56981;-85
2023/12/09 01:47:19;;;;;;;17.60;12.50;;;;;;;2.30;100.00;100164.06;178703;1254;46186;-84
2023/12/09 01:51:23;;;;;;;17.50;11.20;;;;;;;2.34;100.00;100160.23;178299;1255;46093;-85
2023/12/09 01:55:27;;;;;;;18.80;11.20;;;;;;;2.36;100.00;100163.80;178707;1254;45937;-84
2023/12/09 01:59:32;;;;;;;13.50;9.30;;;;;;;2.38;100.00;100167.86;178840;1253;44290;-84
2023/12/09 02:03:36;;;;;;;12.90;10.50;;;;;;;2.38;100.00;100165.77;178436;1252;58235;-84
2023/12/09 02:07:39;;;;;;;12.80;11.30;;;;;;;2.37;100.00;100168.81;179641;1252;45914;-84
2023/12/09 02:12:05;;;;;;;14.00;10.30;;;;;;;2.38;100.00;100168.58;178949;1252;46020;-84
2023/12/09 02:16:22;;;;;;;15.10;10.70;;;;;;;2.37;100.00;100176.70;178935;1253;44111;-84
2023/12/09 02:20:26;;;;;;;;;;;;;;;2.36;100.00;100173.08;179263;1252;45893;-84
2023/12/09 02:24:29;;;;;;;17.90;10.40;;;;;;;2.35;100.00;100169.08;179556;1253;57713;-84
2023/12/09 02:28:40;;;;;;;13.60;9.70;;;;;;;2.35;100.00;100171.00;180153;1252;45849;-84
2023/12/09 02:32:44;;;;;;;11.60;8.90;;;;;;;2.36;100.00;100171.69;178868;1254;46127;-84
2023/12/09 02:36:49;;;;;;;13.80;11.80;;;;;;;2.36;100.00;100172.70;178884;1252;45991;-84
2023/12/09 02:40:52;;;;;;;13.20;10.70;;;;;;;2.38;100.00;100169.30;178607;1253;46001;-84
2023/12/09 02:44:56;;;;;;;13.30;10.20;;;;;;;2.41;100.00;100167.39;178511;1252;59169;-84
2023/12/09 02:49:00;;;;;;;16.90;11.40;;;;;;;2.41;100.00;100165.13;179497;1252;45988;-84
2023/12/09 02:53:03;;;;;;;21.00;11.50;;;;;;;2.42;100.00;100164.73;178549;1252;46046;-85
2023/12/09 02:57:06;;;;;;;12.30;9.80;;;;;;;2.41;100.00;100163.55;178084;1257;46312;-84
2023/12/09 03:01:09;;;;;;;18.20;12.10;;;;;;;2.42;100.00;100162.11;178635;1252;46001;-84
2023/12/09 03:05:13;;;;;;;16.90;12.60;;;;;;;2.43;100.00;100161.32;178225;1253;59564;-85
2023/12/09 03:09:16;;;;;;;16.60;11.50;;;;;;;2.38;100.00;100164.20;178259;1256;46089;-83
2023/12/09 03:13:19;;;;;;;17.00;12.20;;;;;;;2.38;100.00;100160.57;179136;1256;46195;-84
2023/12/09 03:17:24;;;;;;;17.10;13.50;;;;;;;2.39;100.00;100159.61;178942;1253;45991;-83
2023/12/09 03:21:27;;;;;;;14.50;12.90;;;;;;;2.46;100.00;100159.12;178756;1252;45982;-84
2023/12/09 03:25:32;;;;;;;18.90;13.70;;;;;;;2.55;100.00;100155.15;178295;1254;58096;-84
2023/12/09 03:29:36;;;;;;;23.60;12.90;;;;;;;2.54;100.00;100159.20;179109;1253;46076;-84
2023/12/09 03:33:40;;;;;;;19.20;12.90;;;;;;;2.58;100.00;100155.67;180993;1254;44488;-81
2023/12/09 03:37:43;;;;;;;17.70;12.60;;;;;;;2.52;100.00;100149.69;179957;1255;46111;-85
2023/12/09 03:41:46;;;;;;;18.80;12.50;;;;;;;2.45;100.00;100141.80;178218;1252;46078;-83
2023/12/09 03:45:50;;;;;;;23.30;14.60;;;;;;;2.45;100.00;100136.41;179159;1253;59259;-83
2023/12/09 03:49:53;;;;;;;18.20;12.10;;;;;;;2.51;100.00;100138.18;178657;1253;44097;-83
2023/12/09 03:53:57;;;;;;;20.20;15.40;;;;;;;2.55;100.00;100135.73;180118;1252;44066;-83
2023/12/09 03:58:00;;;;;;;22.30;16.90;;;;;;;2.59;100.00;100135.89;179335;1257;46088;-82
2023/12/09 04:02:03;;;;;;;21.30;15.50;;;;;;;2.61;100.00;100140.84;178920;1252;46088;-83
2023/12/09 04:06:06;;;;;;;20.80;14.60;;;;;;;2.63;100.00;100144.74;177858;1254;57386;-83
2023/12/09 04:10:09;;;;;;;18.10;13.60;;;;;;;2.66;100.00;100144.44;178446;1257;46101;-83
2023/12/09 04:14:13;;;;;;;18.40;14.60;;;;;;;2.70;100.00;100146.85;179955;1253;45989;-83
2023/12/09 04:18:17;;;;;;;23.50;18.00;;;;;;;2.77;100.00;100145.83;179141;1253;46111;-83
2023/12/09 04:22:20;;;;;;;25.20;16.60;;;;;;;2.84;100.00;100151.07;178840;1256;46509;-82
2023/12/09 04:26:24;;;;;;;17.30;14.00;;;;;;;2.87;100.00;100144.26;179667;1253;59550;-83
2023/12/09 04:30:28;;;;;;;22.00;13.50;;;;;;;2.88;100.00;100140.54;178329;1252;46118;-84
2023/12/09 04:34:31;;;;;;;20.50;14.70;;;;;;;2.84;100.00;100138.43;178346;1253;45998;-83
2023/12/09 04:38:34;;;;;;;26.10;16.60;;;;;;;2.73;100.00;100150.04;178798;1253;46005;-83
2023/12/09 04:42:38;;;;;;;21.70;14.00;;;;;;;2.76;100.00;100151.15;179648;1253;45966;-82
2023/12/09 04:46:41;;;;;;;15.70;11.90;;;;;;;2.77;100.00;100141.80;178828;1255;58226;-82
2023/12/09 04:50:45;;;;;;;19.10;12.80;;;;;;;2.81;100.00;100140.34;179037;1256;45978;-84
2023/12/09 04:54:48;;;;;;;20.30;14.90;;;;;;;2.77;100.00;100140.76;178213;1253;46043;-83
2023/12/09 04:58:51;;;;;;;21.30;14.50;;;;;;;2.77;100.00;100135.82;178583;1253;46004;-84
2023/12/09 05:02:54;;;;;;;19.90;12.60;;;;;;;2.73;100.00;100137.96;178007;1253;46117;-83
2023/12/09 05:06:58;;;;;;;19.40;13.10;;;;;;;2.70;100.00;100137.73;177912;1252;57986;-83
2023/12/09 05:11:01;;;;;;;16.90;11.60;;;;;;;2.67;100.00;100136.66;178805;1253;44490;-83
2023/12/09 05:15:05;;;;;;;17.90;12.50;;;;;;;2.66;100.00;100134.30;178795;1253;46013;-83
2023/12/09 05:19:09;;;;;;;23.60;16.60;;;;;;;2.71;100.00;100130.33;179282;1253;46103;-83
2023/12/09 05:23:12;;;;;;;19.00;15.50;;;;;;;2.76;100.00;100131.33;179085;1253;44651;-84
2023/12/09 05:27:15;;;;;;;14.40;11.80;;;;;;;2.80;100.00;100127.63;179603;1255;57479;-82
2023/12/09 05:31:19;;;;;;;15.20;12.50;;;;;;;2.88;100.00;100126.52;178914;1252;46126;-83
2023/12/09 05:35:22;;;;;;;23.70;15.30;;;;;;;2.93;100.00;100141.30;179342;1253;45988;-84
2023/12/09 05:39:25;;;;;;;20.30;13.80;;;;;;;3.01;100.00;100142.30;178428;1253;46109;-83
2023/12/09 05:43:28;;;;;;;18.60;14.30;;;;;;;3.08;100.00;100142.83;179525;1252;45985;-84
2023/12/09 05:47:31;;;;;;;23.70;15.60;;;;;;;3.08;100.00;100141.25;178826;1252;58087;-84
2023/12/09 05:51:35;;;;;;;20.70;14.50;;;;;;;3.09;100.00;100136.42;178940;1253;46021;-83
2023/12/09 05:55:38;;;;;;;26.60;17.00;;;;;;;3.09;100.00;100138.02;179269;1253;45799;-84
2023/12/09 05:59:42;;;;;;;28.30;16.60;;;;;;;3.10;100.00;100140.79;178528;1253;46034;-84
2023/12/09 06:03:45;;;;;;;23.90;16.40;;;;;;;3.10;100.00;100146.54;179397;1256;46035;-83
2023/12/09 06:07:48;;;;;;;25.40;16.10;;;;;;;3.10;100.00;100147.07;179802;1252;59290;-83
2023/12/09 06:11:52;;;;;;;27.70;19.00;;;;;;;3.08;100.00;100147.05;178803;1253;46198;-83
2023/12/09 06:15:55;;;;;;;26.50;19.00;;;;;;;3.07;100.00;100150.08;179218;1252;45969;-84
2023/12/09 06:19:59;;;;;;;24.70;17.80;;;;;;;3.06;100.00;100152.20;178829;1252;44165;-84
2023/12/09 06:24:02;;;;;;;24.40;15.80;;;;;;;3.07;100.00;100155.66;178825;1252;46018;-83
2023/12/09 06:28:06;;;;;;;25.90;17.20;;;;;;;3.07;100.00;100151.26;178582;1253;58015;-84
2023/12/09 06:32:09;;;;;;;22.40;16.30;;;;;;;3.06;100.00;100155.55;179461;1253;46107;-84
2023/12/09 06:36:12;;;;;;;25.40;17.10;;;;;;;3.07;100.00;100157.80;178390;1253;46065;-83
2023/12/09 06:40:15;;;;;;;29.20;15.30;;;;;;;3.08;100.00;100160.15;178601;1255;46196;-84
2023/12/09 06:44:19;;;;;;;21.10;15.50;;;;;;;3.06;100.00;100159.38;179014;1252;44293;-84
2023/12/09 06:48:22;;;;;;;29.00;17.50;;;;;;;3.05;100.00;100166.09;178542;1252;58220;-83
2023/12/09 06:52:25;;;;;;;27.70;18.50;;;;;;;3.05;100.00;100170.33;179478;1252;46037;-83
2023/12/09 06:56:29;;;;;;;24.10;17.90;;;;;;;3.04;100.00;100168.44;179637;1252;44069;-83
2023/12/09 07:00:32;;;;;;;23.40;16.60;;;;;;;3.05;100.00;100167.53;178561;1252;46104;-83
2023/12/09 07:04:38;;;;;;;28.30;18.70;;;;;;;3.03;100.00;100167.08;179924;1252;46026;-81
2023/12/09 07:08:41;;;;;;;27.40;20.20;;;;;;;3.06;100.00;100170.41;181150;1256;60377;-83
2023/12/09 07:12:44;;;;;;;31.10;21.20;;;;;;;3.05;100.00;100165.75;179573;1253;46081;-83
2023/12/09 07:16:47;;;;;;;28.60;17.80;;;;;;;3.08;100.00;100164.38;178669;1257;45917;-82
2023/12/09 07:20:51;;;;;;;25.90;18.30;;;;;;;3.11;100.00;100158.42;178071;1253;45866;-84
2023/12/09 07:24:54;;;;;;;35.80;23.90;;;;;;;3.14;100.00;100158.60;178433;1256;46040;-83
2023/12/09 07:28:57;;;;;;;31.70;22.50;;;;;;;3.19;100.00;100160.31;178518;1256;58206;-82
2023/12/09 07:33:00;;;;;;;29.10;19.40;;;;;;;3.21;100.00;100158.93;178172;1255;46106;-82
2023/12/09 07:37:04;;;;;;;31.40;21.30;;;;;;;3.28;100.00;100163.15;177964;1257;46114;-83
2023/12/09 07:41:07;;;;;;;30.20;20.70;;;;;;;3.34;100.00;100160.57;178582;1255;45972;-82
2023/12/09 07:45:10;;;;;;;34.50;20.20;;;;;;;3.39;100.00;100159.07;178600;1254;45914;-83
2023/12/09 07:49:13;;;;;;;37.90;24.10;;;;;;;3.42;100.00;100154.30;178002;1254;59235;-82
2023/12/09 07:53:17;;;;;;;39.20;25.30;;;;;;;3.50;100.00;100153.54;178790;1254;46114;-81
2023/12/09 07:57:20;;;;;;;34.20;23.00;;;;;;;3.61;100.00;100156.49;178301;1256;45993;-83
2023/12/09 08:01:23;;;;;;;33.70;21.70;;;;;;;3.67;100.00;100156.33;178956;1254;46347;-84
2023/12/09 08:05:26;;;;;;;32.50;18.90;;;;;;;3.72;100.00;100152.01;178428;1257;46146;-84
2023/12/09 08:09:30;;;;;;;35.20;21.70;;;;;;;3.80;100.00;100149.14;178402;1254;57901;-83
2023/12/09 08:13:33;;;;;;;36.50;22.80;;;;;;;3.85;100.00;100143.77;178785;1254;45998;-84
2023/12/09 08:17:36;;;;;;;41.00;25.30;;;;;;;3.93;100.00;100143.15;178893;1257;45997;-83
2023/12/09 08:21:40;;;;;;;35.00;24.20;;;;;;;3.99;100.00;100144.73;179522;1254;46116;-83
2023/12/09 08:25:43;;;;;;;29.50;20.40;;;;;;;4.02;100.00;100142.30;178936;1252;45978;-83
2023/12/09 08:29:46;;;;;;;25.10;16.30;;;;;;;4.03;100.00;100139.43;178348;1256;59372;-83
2023/12/09 08:33:49;;;;;;;31.30;20.70;;;;;;;4.02;100.00;100144.73;178833;1253;46060;-83
2023/12/09 08:37:53;;;;;;;30.90;18.90;;;;;;;4.02;100.00;100140.34;178625;1254;45965;-84
2023/12/09 08:41:56;;;;;;;28.40;18.30;;;;;;;4.05;100.00;100144.93;178391;1255;45952;-84
2023/12/09 08:46:00;;;;;;;26.00;17.60;;;;;;;4.09;100.00;100142.39;178584;1256;46028;-85
2023/12/09 08:50:06;;;;;;;29.10;16.80;;;;;;;4.09;100.00;100142.58;179201;1257;58201;-87
2023/12/09 08:54:25;;;;;;;27.10;17.90;;;;;;;4.08;100.00;100146.49;178677;1258;46063;-85
2023/12/09 08:58:28;;;;;;;21.90;14.30;;;;;;;4.13;100.00;100147.13;179150;1254;252443;-86
2023/12/09 09:02:32;;;;;;;21.10;13.00;;;;;;;4.13;100.00;100153.58;179893;1256;46604;-84
2023/12/09 09:06:35;;;;;;;20.80;15.10;;;;;;;4.12;100.00;100150.98;178216;1255;46109;-84
2023/12/09 09:10:39;;;;;;;18.80;14.80;;;;;;;4.14;100.00;100146.16;178278;1254;58290;-84
2023/12/09 09:14:42;;;;;;;19.90;14.30;;;;;;;4.16;100.00;100142.36;179134;1253;46056;-84
2023/12/09 09:18:46;;;;;;;20.90;14.50;;;;;;;4.21;100.00;100140.34;179227;1254;46090;-84
2023/12/09 09:22:49;;;;;;;20.40;14.10;;;;;;;4.27;100.00;100138.26;178993;1256;45871;-83
2023/12/09 09:26:52;;;;;;;21.40;14.00;;;;;;;4.31;100.00;100140.09;178898;1257;45988;-85
2023/12/09 09:30:56;;;;;;;22.60;15.50;;;;;;;4.33;100.00;100136.33;178370;1254;59622;-85
2023/12/09 09:34:59;;;;;;;25.70;16.70;;;;;;;4.32;100.00;100129.49;178556;1253;46023;-85
2023/12/09 09:39:03;;;;;;;31.90;20.00;;;;;;;4.28;99.97;100121.87;178997;1254;46124;-83
2023/12/09 09:43:21;;;;;;;26.80;17.10;;;;;;;4.28;99.83;100116.77;178726;1255;46117;-83
2023/12/09 09:47:24;;;;;;;35.60;23.80;;;;;;;4.25;99.56;100108.13;179261;1255;46103;-83
2023/12/09 09:51:30;;;;;;;28.90;20.30;;;;;;;4.33;99.51;100104.70;179144;1254;57887;-83
2023/12/09 09:55:35;;;;;;;28.70;17.80;;;;;;;4.40;99.34;100100.41;178959;1255;46108;-83
2023/12/09 09:59:38;;;;;;;27.10;17.70;;;;;;;4.44;98.98;100091.95;179073;1255;45996;-82
2023/12/09 10:03:42;;;;;;;44.50;26.90;;;;;;;4.56;99.88;100085.31;179506;1254;44769;-84
2023/12/09 10:07:46;;;;;;;34.30;23.70;;;;;;;4.61;98.76;100081.83;180881;1255;44097;-84
2023/12/09 10:11:50;;;;;;;50.90;32.40;;;;;;;4.63;98.73;100073.12;179834;1255;57720;-83
2023/12/09 10:15:56;;;;;;;64.30;39.30;;;;;;;4.63;98.40;100074.35;180013;1254;46091;-84
2023/12/09 10:20:00;;;;;;;33.00;23.70;;;;;;;4.62;98.25;100079.45;179865;1254;46079;-83
2023/12/09 10:24:04;;;;;;;32.90;22.70;;;;;;;4.62;98.16;100074.19;179758;1254;44105;-84
2023/12/09 10:28:12;;;;;;;33.10;23.50;;;;;;;4.67;97.75;100071.42;179468;1255;45970;-84
2023/12/09 10:32:16;;;;;;;72.20;42.00;;;;;;;4.72;97.60;100064.30;178910;1254;57935;-85
2023/12/09 10:36:20;;;;;;;101.40;52.70;;;;;;;4.80;97.42;100058.73;179756;1254;46062;-84
2023/12/09 10:40:24;;;;;;;199.00;99.40;;;;;;;4.93;98.03;100058.11;181002;1254;45923;-83
2023/12/09 10:44:31;;;;;;;73.50;47.60;;;;;;;5.06;96.60;100050.99;180825;1254;44744;-84
2023/12/09 10:48:39;;;;;;;62.10;37.80;;;;;;;5.13;95.44;100050.20;178852;1254;46003;-82
2023/12/09 10:52:42;;;;;;;43.00;29.30;;;;;;;5.25;96.73;100050.17;180343;1254;58247;-84
2023/12/09 10:56:46;;;;;;;37.40;29.70;;;;;;;5.34;95.40;100046.60;179153;1254;46076;-85
2023/12/09 11:00:52;;;;;;;34.80;23.90;;;;;;;5.32;94.08;100034.79;178862;1253;46020;-85
2023/12/09 11:04:59;;;;;;;25.70;18.30;;;;;;;5.31;93.96;100032.90;178564;1255;46189;-84
2023/12/09 11:09:06;;;;;;;18.30;15.30;;;;;;;5.31;93.14;100033.25;178887;1253;45979;-86
2023/12/09 11:13:12;;;;;;;24.00;15.60;;;;;;;5.40;93.38;100033.73;178969;1254;56988;-87
2023/12/09 11:17:36;;;;;;;24.90;14.30;;;;;;;5.38;92.66;100030.16;179447;1254;46040;-86
2023/12/09 11:21:46;;;;;;;14.70;10.40;;;;;;;5.32;92.24;100017.38;178526;1253;46138;-83
2023/12/09 11:25:52;;;;;;;20.40;13.90;;;;;;;5.24;91.88;100006.60;178418;1254;46282;-88
2023/12/09 11:29:55;;;;;;;20.90;14.10;;;;;;;5.25;92.75;100003.36;179799;1254;44002;-85
2023/12/09 11:34:00;;;;;;;25.10;14.70;;;;;;;5.27;92.75;100004.30;178699;1254;58221;-86
2023/12/09 11:38:06;;;;;;;16.00;12.00;;;;;;;5.30;92.34;100001.67;179018;1254;44381;-86
2023/12/09 11:42:10;;;;;;;16.50;13.20;;;;;;;5.22;92.38;99989.66;179611;1253;46025;-86
2023/12/09 11:46:14;;;;;;;26.20;15.40;;;;;;;5.17;92.40;99988.97;178671;1253;45996;-84
2023/12/09 11:50:17;;;;;;;21.60;16.50;;;;;;;5.11;92.96;99988.05;179598;1254;45998;-86
2023/12/09 11:54:20;;;;;;;28.10;16.30;;;;;;;5.11;93.42;99982.15;178223;1254;59429;-86
2023/12/09 11:58:24;;;;;;;29.80;21.40;;;;;;;5.05;93.53;99977.59;178868;1254;46042;-86
2023/12/09 12:02:28;;;;;;;40.20;25.20;;;;;;;4.98;94.03;99970.25;178043;1254;46031;-87
2023/12/09 12:06:32;;;;;;;57.70;29.10;;;;;;;4.92;94.43;99970.33;178447;1254;45991;-87
2023/12/09 12:10:36;;;;;;;52.70;27.30;;;;;;;4.78;95.03;99962.73;178255;1254;48340;-85
2023/12/09 12:14:40;;;;;;;53.30;28.70;;;;;;;4.64;95.77;99969.94;178560;1254;61556;-85
2023/12/09 12:18:44;;;;;;;46.40;24.40;;;;;;;4.67;96.40;99965.87;178725;1254;46000;-87
2023/12/09 12:22:48;;;;;;;44.90;24.90;;;;;;;4.57;96.47;99963.16;179228;1257;46015;-88
2023/12/09 12:26:55;;;;;;;39.40;22.50;;;;;;;4.56;96.42;99963.92;178665;1257;46094;-86
2023/12/09 12:30:59;;;;;;;27.50;16.70;;;;;;;4.52;96.74;99960.31;178700;1253;46203;-86
2023/12/09 12:35:07;;;;;;;19.00;12.90;;;;;;;4.44;97.06;99958.30;178599;1253;57918;-86
2023/12/09 12:39:12;;;;;;;12.30;10.70;;;;;;;4.42;97.64;99953.70;178511;1256;45897;-84
2023/12/09 12:43:16;;;;;;;17.40;14.60;;;;;;;4.40;98.27;99943.14;178490;1256;46111;-85
2023/12/09 12:47:19;;;;;;;21.60;15.10;;;;;;;4.41;98.34;99926.23;178909;1254;44498;-85
2023/12/09 12:51:23;;;;;;;22.20;15.70;;;;;;;4.39;98.59;99914.39;178258;1254;46007;-85
2023/12/09 12:55:28;;;;;;;26.40;17.60;;;;;;;4.42;98.44;99916.65;178961;1254;58110;-83
2023/12/09 12:59:32;;;;;;;29.50;18.90;;;;;;;4.41;98.03;99911.23;179109;1254;46108;-82
2023/12/09 13:03:35;;;;;;;43.60;26.00;;;;;;;4.38;98.30;99907.22;178708;1255;46160;-84
2023/12/09 13:07:38;;;;;;;52.60;26.00;;;;;;;4.33;98.80;99900.36;178591;1253;46093;-84
2023/12/09 13:11:42;;;;;;;51.40;24.10;;;;;;;4.31;99.26;99900.33;178663;1254;45840;-84
2023/12/09 13:15:45;;;;;;;37.30;22.60;;;;;;;4.33;99.08;99896.11;178347;1256;59768;-84
2023/12/09 13:19:48;;;;;;;26.70;19.00;;;;;;;4.31;99.25;99893.95;178521;1254;46208;-85
2023/12/09 13:23:52;;;;;;;28.00;17.90;;;;;;;4.28;99.20;99886.80;179666;1252;45978;-84
2023/12/09 13:27:55;;;;;;;23.80;14.30;;;;;;;4.25;99.32;99879.81;178800;1252;46120;-84
2023/12/09 13:31:58;;;;;;;18.00;11.30;;;;;;;4.28;99.17;99878.16;178527;1253;46124;-83
2023/12/09 13:36:06;;;;;;;39.40;26.20;;;;;;;4.26;98.28;99873.90;178527;1254;57091;-85
2023/12/09 13:40:11;;;;;;;43.00;29.40;;;;;;;4.19;98.61;99872.41;178239;1253;46201;-84
2023/12/09 13:44:15;;;;;;;26.40;20.60;;;;;;;4.12;98.98;99870.75;178926;1253;46150;-83
2023/12/09 13:48:18;;;;;;;19.10;14.40;;;;;;;4.08;99.41;99865.91;178564;1252;46085;-83
2023/12/09 13:52:23;;;;;;;18.40;10.40;;;;;;;4.04;99.74;99862.26;179163;1253;44048;-83
2023/12/09 13:56:27;;;;;;;13.50;10.30;;;;;;;4.03;100.00;99854.08;177883;1252;59245;-84
2023/12/09 14:00:30;;;;;;;18.60;11.80;;;;;;;4.04;100.00;99849.46;178328;1254;46079;-84
2023/12/09 14:04:35;;;;;;;16.20;11.50;;;;;;;3.97;100.00;99845.89;178178;1254;46053;-84
2023/12/09 14:08:38;;;;;;;24.80;15.10;;;;;;;3.84;100.00;99848.39;177804;1254;45850;-84
2023/12/09 14:12:43;;;;;;;19.40;13.60;;;;;;;3.78;100.00;99845.98;178753;1253;46017;-81
2023/12/09 14:16:47;;;;;;;17.80;13.10;;;;;;;3.70;100.00;99845.92;181227;1254;57862;-84
2023/12/09 14:20:50;;;;;;;16.60;11.40;;;;;;;3.63;100.00;99844.73;179434;1254;46086;-83
2023/12/09 14:24:53;;;;;;;18.20;12.20;;;;;;;3.58;100.00;99844.48;178410;1254;44412;-83
2023/12/09 14:28:56;;;;;;;26.30;15.10;;;;;;;3.67;100.00;99843.25;179188;1253;46299;-83
2023/12/09 14:32:59;;;;;;;25.00;16.80;;;;;;;3.75;100.00;99848.58;178517;1252;45882;-84
2023/12/09 14:37:03;;;;;;;22.00;13.60;;;;;;;3.68;100.00;99852.00;178386;1257;59582;-83
2023/12/09 14:41:06;;;;;;;35.10;22.00;;;;;;;3.59;100.00;99848.50;178321;1254;46060;-84
2023/12/09 14:45:10;;;;;;;41.50;26.30;;;;;;;3.61;100.00;99843.11;178456;1254;46120;-84
2023/12/09 14:49:13;;;;;;;37.90;22.80;;;;;;;3.59;100.00;99845.65;178375;1254;46094;-83
2023/12/09 14:53:17;;;;;;;24.30;15.00;;;;;;;3.62;100.00;99848.49;179033;1253;45882;-83
2023/12/09 14:57:21;;;;;;;28.20;16.30;;;;;;;3.60;100.00;99834.60;180845;1253;59548;-83
2023/12/09 15:01:24;;;;;;;42.30;23.40;;;;;;;3.64;100.00;99819.28;180046;1253;46054;-82
2023/12/09 15:05:27;;;;;;;55.80;33.80;;;;;;;3.61;100.00;99821.38;179276;1253;45454;-82
2023/12/09 15:09:31;;;;;;;130.90;67.90;;;;;;;3.54;100.00;99805.63;179811;1254;46002;-82
2023/12/09 15:13:34;;;;;;;148.90;76.80;;;;;;;3.44;100.00;99793.98;179650;1252;46016;-83
2023/12/09 15:17:38;;;;;;;39.30;20.30;;;;;;;3.33;100.00;99789.20;180264;1252;59550;-83
2023/12/09 15:21:41;;;;;;;42.30;25.50;;;;;;;3.26;100.00;99782.38;179109;1253;45978;-83
2023/12/09 15:25:45;;;;;;;34.80;20.80;;;;;;;3.23;100.00;99768.20;178915;1253;46109;-83
2023/12/09 15:29:48;;;;;;;18.00;12.30;;;;;;;3.08;100.00;99759.10;179191;1252;45982;-84
2023/12/09 15:33:51;;;;;;;27.30;17.70;;;;;;;3.04;100.00;99763.56;179723;1252;44181;-83
2023/12/09 15:37:57;;;;;;;20.30;14.50;;;;;;;3.03;100.00;99767.65;179952;1254;59063;-82
2023/12/09 15:42:01;;;;;;;14.40;10.50;;;;;;;3.02;100.00;99767.18;178961;1253;46012;-83
2023/12/09 15:46:05;;;;;;;17.60;12.40;;;;;;;3.01;100.00;99771.57;178596;1252;46108;-83
2023/12/09 15:50:08;;;;;;;26.90;14.50;;;;;;;3.03;100.00;99770.44;179413;1253;44605;-83
2023/12/09 15:54:14;;;;;;;20.10;13.00;;;;;;;3.07;100.00;99761.77;179844;1254;44190;-82
2023/12/09 15:58:17;;;;;;;27.40;16.40;;;;;;;3.12;100.00;99763.45;179469;1253;59809;-84
2023/12/09 16:02:21;;;;;;;34.00;17.30;;;;;;;3.13;100.00;99763.88;179118;1252;46045;-84
2023/12/09 16:06:25;;;;;;;17.30;12.00;;;;;;;3.14;100.00;99755.58;179406;1253;44712;-84
2023/12/09 16:10:28;;;;;;;19.30;10.80;;;;;;;3.13;100.00;99736.36;178714;1253;46089;-85
2023/12/09 16:14:32;;;;;;;19.60;11.30;;;;;;;3.15;100.00;99731.92;179249;1253;46429;-83
2023/12/09 16:18:35;;;;;;;14.40;11.70;;;;;;;3.18;100.00;99722.41;179931;1254;59391;-83
2023/12/09 16:22:39;;;;;;;23.40;14.00;;;;;;;3.16;100.00;99711.00;180123;1252;44273;-85
2023/12/09 16:26:43;;;;;;;61.70;32.50;;;;;;;3.13;100.00;99703.09;179219;1255;46083;-81
2023/12/09 16:30:46;;;;;;;59.80;31.10;;;;;;;3.13;100.00;99692.93;179459;1253;44162;-83
2023/12/09 16:34:49;;;;;;;32.80;19.30;;;;;;;3.13;100.00;99687.16;178745;1253;46003;-84
2023/12/09 16:38:53;;;;;;;26.20;16.00;;;;;;;3.09;100.00;99676.86;179499;1254;58939;-81
2023/12/09 16:42:56;;;;;;;23.50;13.00;;;;;;;3.04;100.00;99661.44;179326;1252;45944;-83
2023/12/09 16:47:00;;;;;;;15.00;11.40;;;;;;;2.89;100.00;99648.45;179042;1255;46254;-84
2023/12/09 16:51:03;;;;;;;21.80;11.90;;;;;;;2.88;100.00;99647.80;178944;1254;46104;-85
2023/12/09 16:55:07;;;;;;;16.60;13.00;;;;;;;2.83;100.00;99639.73;178614;1254;46118;-85
2023/12/09 16:59:10;;;;;;;19.50;12.60;;;;;;;2.86;100.00;99634.11;178966;1253;59289;-81
2023/12/09 17:03:14;;;;;;;19.60;13.80;;;;;;;2.77;100.00;99636.74;179868;1252;45984;-82
2023/12/09 17:07:17;;;;;;;20.40;12.70;;;;;;;2.79;100.00;99626.09;179249;1252;46001;-83
2023/12/09 17:11:21;;;;;;;19.00;11.90;;;;;;;2.76;100.00;99619.46;179502;1252;44213;-84
2023/12/09 17:15:24;;;;;;;14.20;11.10;;;;;;;2.71;100.00;99624.64;179422;1253;46122;-86
2023/12/09 17:19:27;;;;;;;13.90;9.40;;;;;;;2.70;100.00;99612.79;179540;1253;59309;-82
2023/12/09 17:23:33;;;;;;;43.20;29.90;;;;;;;2.66;100.00;99611.44;179411;1252;45885;-83
2023/12/09 17:27:36;;;;;;;16.50;12.20;;;;;;;2.60;100.00;99605.16;178840;1257;45930;-85
2023/12/09 17:31:40;;;;;;;23.40;14.40;;;;;;;2.52;100.00;99598.14;178820;1253;46179;-83
2023/12/09 17:35:47;;;;;;;76.80;37.00;;;;;;;2.47;100.00;99591.58;178691;1253;46148;-83
2023/12/09 17:39:50;;;;;;;65.10;28.40;;;;;;;2.45;100.00;99586.61;178965;1253;58211;-84
2023/12/09 17:43:54;;;;;;;283.30;123.10;;;;;;;2.39;100.00;99581.05;179090;1255;46086;-82
2023/12/09 17:47:57;;;;;;;183.60;84.40;;;;;;;2.30;100.00;99574.00;181010;1252;44037;-82
2023/12/09 17:52:01;;;;;;;51.10;21.30;;;;;;;2.27;100.00;99567.71;180929;1253;46111;-84
2023/12/09 17:56:05;;;;;;;71.10;38.40;;;;;;;2.30;100.00;99558.96;178710;1256;46070;-85
2023/12/09 18:00:11;;;;;;;39.00;19.50;;;;;;;2.34;100.00;99553.98;178991;1252;58626;-85
2023/12/09 18:04:14;;;;;;;30.10;18.80;;;;;;;2.39;100.00;99538.35;179184;1252;46115;-84
2023/12/09 18:08:18;;;;;;;27.40;18.50;;;;;;;2.43;100.00;99528.46;178864;1252;44275;-84
2023/12/09 18:12:22;;;;;;;20.30;14.00;;;;;;;2.37;100.00;99513.59;179127;1252;47535;-84
2023/12/09 18:16:25;;;;;;;22.30;15.00;;;;;;;2.36;100.00;99504.05;178979;1253;46127;-84
2023/12/09 18:20:28;;;;;;;17.00;10.10;;;;;;;2.38;100.00;99499.17;178280;1256;58776;-84
2023/12/09 18:24:31;;;;;;;15.20;10.20;;;;;;;2.41;100.00;99492.20;178390;1252;45973;-83